createdAt,value
2022-12-02T00:01:15.445Z,-0.80
2022-12-02T00:03:44.012Z,-0.80
2022-12-02T00:06:15.780Z,-0.90
2022-12-02T00:08:43.720Z,-0.90
2022-12-02T00:11:26.885Z,-0.90
2022-12-02T00:13:58.024Z,-0.90
2022-12-02T00:16:27.687Z,-0.90
2022-12-02T00:18:56.637Z,-0.90
2022-12-02T00:21:24.561Z,-0.90
2022-12-02T00:23:52.514Z,-0.90
2022-12-02T00:26:20.767Z,-1.00
2022-12-02T00:28:48.721Z,-1.00
2022-12-02T00:31:18.105Z,-0.90
2022-12-02T00:33:46.104Z,-0.80
2022-12-02T00:36:14.395Z,-0.90
2022-12-02T00:38:44.251Z,-0.90
2022-12-02T00:41:12.164Z,-0.90
2022-12-02T00:43:57.598Z,-0.90
2022-12-02T00:46:35.053Z,-0.90
2022-12-02T00:49:06.451Z,-0.90
2022-12-02T00:51:35.509Z,-0.90
2022-12-02T00:54:03.854Z,-0.90
2022-12-02T00:56:32.771Z,-1.00
2022-12-02T00:59:01.026Z,-1.00
2022-12-02T01:01:30.721Z,-1.00
2022-12-02T01:03:58.810Z,-1.00
2022-12-02T01:06:26.811Z,-1.00
2022-12-02T01:08:54.799Z,-1.00
2022-12-02T01:11:22.781Z,-1.10
2022-12-02T01:13:50.766Z,-1.10
2022-12-02T01:16:18.860Z,-1.10
2022-12-02T01:18:48.190Z,-1.10
2022-12-02T01:21:16.243Z,-1.10
2022-12-02T01:23:44.210Z,-1.10
2022-12-02T01:26:12.187Z,-1.10
2022-12-02T01:28:40.140Z,-1.10
2022-12-02T01:31:08.218Z,-1.20
2022-12-02T01:33:36.227Z,-1.20
2022-12-02T01:36:05.680Z,-1.10
2022-12-02T01:38:34.000Z,-1.10
2022-12-02T01:41:02.326Z,-1.10
2022-12-02T01:43:30.369Z,-1.10
2022-12-02T01:45:58.661Z,-1.20
2022-12-02T01:48:28.184Z,-1.10
2022-12-02T01:50:56.695Z,-1.10
2022-12-02T01:53:26.489Z,-1.10
2022-12-02T01:55:54.648Z,-1.10
2022-12-02T01:58:27.596Z,-1.10
2022-12-02T02:00:56.395Z,-1.10
2022-12-02T02:03:25.337Z,-1.10
2022-12-02T02:05:53.491Z,-1.10
2022-12-02T02:08:22.233Z,-1.10
2022-12-02T02:10:51.633Z,-1.10
2022-12-02T02:13:19.687Z,-1.10
2022-12-02T02:15:47.981Z,-1.00
2022-12-02T02:18:17.537Z,-1.00
2022-12-02T02:20:45.603Z,-1.10
2022-12-02T02:23:24.213Z,-1.10
2022-12-02T02:25:56.286Z,-1.10
2022-12-02T02:28:28.893Z,-1.10
2022-12-02T02:30:58.733Z,-1.00
2022-12-02T02:33:35.426Z,-1.00
2022-12-02T02:36:04.302Z,-1.00
2022-12-02T02:38:35.298Z,-1.00
2022-12-02T02:41:04.745Z,-1.00
2022-12-02T02:43:33.489Z,-1.00
2022-12-02T02:46:02.622Z,-1.00
2022-12-02T02:48:38.606Z,-1.10
2022-12-02T02:51:08.075Z,-1.00
2022-12-02T02:53:38.416Z,-1.10
2022-12-02T02:56:09.041Z,-1.10
2022-12-02T02:58:38.896Z,-1.10
2022-12-02T03:01:10.425Z,-1.20
2022-12-02T03:03:42.752Z,-1.20
2022-12-02T03:06:12.985Z,-1.20
2022-12-02T03:08:47.293Z,-1.20
2022-12-02T03:11:15.615Z,-1.10
2022-12-02T03:13:47.457Z,-1.10
2022-12-02T03:16:18.325Z,-1.10
2022-12-02T03:18:48.048Z,-1.00
2022-12-02T03:21:17.969Z,-1.00
2022-12-02T03:23:48.413Z,-1.00
2022-12-02T03:26:16.896Z,-1.00
2022-12-02T03:28:45.392Z,-1.00
2022-12-02T03:31:14.582Z,-1.00
2022-12-02T03:33:43.531Z,-1.00
2022-12-02T03:36:12.649Z,-1.10
2022-12-02T03:38:40.855Z,-1.10
2022-12-02T03:41:10.880Z,-1.00
2022-12-02T03:43:38.999Z,-1.10
2022-12-02T03:46:08.294Z,-1.10
2022-12-02T03:48:38.203Z,-1.10
2022-12-02T03:51:07.173Z,-1.10
2022-12-02T03:53:36.748Z,-1.00
2022-12-02T03:56:05.440Z,-1.00
2022-12-02T03:58:36.576Z,-1.10
2022-12-02T04:01:05.192Z,-1.10
2022-12-02T04:03:33.360Z,-1.00
2022-12-02T04:06:01.369Z,-1.00
2022-12-02T04:08:29.900Z,-1.00
2022-12-02T04:10:58.003Z,-1.00
2022-12-02T04:13:26.156Z,-1.00
2022-12-02T04:15:55.768Z,-1.00
2022-12-02T04:18:24.002Z,-1.10
2022-12-02T04:20:51.949Z,-1.00
2022-12-02T04:23:20.759Z,-1.00
2022-12-02T04:25:48.665Z,-1.00
2022-12-02T04:28:16.763Z,-1.00
2022-12-02T04:30:44.773Z,-1.00
2022-12-02T04:33:14.230Z,-1.00
2022-12-02T04:35:42.189Z,-1.00
2022-12-02T04:38:12.245Z,-1.00
2022-12-02T04:40:40.811Z,-1.00
2022-12-02T04:43:08.815Z,-1.00
2022-12-02T04:45:37.028Z,-0.90
2022-12-02T04:48:05.369Z,-1.10
2022-12-02T04:50:34.646Z,-1.10
2022-12-02T04:53:02.830Z,-1.10
2022-12-02T04:55:30.764Z,-1.10
2022-12-02T04:57:58.861Z,-1.20
2022-12-02T05:00:26.967Z,-1.20
2022-12-02T05:02:55.046Z,-1.20
2022-12-02T05:05:23.052Z,-1.20
2022-12-02T05:07:52.441Z,-1.10
2022-12-02T05:10:20.440Z,-1.20
2022-12-02T05:12:48.368Z,-1.10
2022-12-02T05:15:16.547Z,-1.10
2022-12-02T05:17:44.545Z,-1.10
2022-12-02T05:20:13.957Z,-1.10
2022-12-02T05:22:41.882Z,-1.20
2022-12-02T05:25:13.315Z,-1.20
2022-12-02T05:27:41.282Z,-1.20
2022-12-02T05:30:10.344Z,-1.20
2022-12-02T05:32:38.321Z,-1.20
2022-12-02T05:35:07.147Z,-1.30
2022-12-02T05:37:35.122Z,-1.20
2022-12-02T05:40:03.274Z,-1.30
2022-12-02T05:42:32.686Z,-1.30
2022-12-02T05:45:07.466Z,-1.30
2022-12-02T05:47:35.888Z,-1.30
2022-12-02T05:50:12.187Z,-1.40
2022-12-02T05:52:40.230Z,-1.40
2022-12-02T05:55:14.760Z,-1.30
2022-12-02T05:57:44.314Z,-1.30
2022-12-02T06:00:16.973Z,-1.30
2022-12-02T06:02:47.254Z,-1.30
2022-12-02T06:05:18.358Z,-1.30
2022-12-02T06:07:46.890Z,-1.30
2022-12-02T06:10:25.043Z,-1.30
2022-12-02T06:12:57.087Z,-1.30
2022-12-02T06:15:25.095Z,-1.30
2022-12-02T06:17:53.939Z,-1.30
2022-12-02T06:20:29.751Z,-1.30
2022-12-02T06:22:58.382Z,-1.40
2022-12-02T06:25:28.432Z,-1.30
2022-12-02T06:28:07.380Z,-1.30
2022-12-02T06:30:38.305Z,-1.40
2022-12-02T06:33:06.384Z,-1.40
2022-12-02T06:35:34.613Z,-1.30
2022-12-02T06:38:04.593Z,-1.40
2022-12-02T06:40:33.965Z,-1.40
2022-12-02T06:43:08.582Z,-1.40
2022-12-02T06:45:36.643Z,-1.40
2022-12-02T06:48:14.484Z,-1.40
2022-12-02T06:50:43.510Z,-1.40
2022-12-02T06:53:25.871Z,-1.40
2022-12-02T06:55:59.478Z,-1.40
2022-12-02T06:58:42.375Z,-1.30
2022-12-02T07:01:25.688Z,-1.30
2022-12-02T07:04:30.624Z,-1.30
2022-12-02T07:07:03.010Z,-1.40
2022-12-02T07:09:38.445Z,-1.40
2022-12-02T07:12:13.575Z,-1.40
2022-12-02T07:14:46.942Z,-1.40
2022-12-02T07:17:21.885Z,-1.30
2022-12-02T07:19:55.165Z,-1.30
2022-12-02T07:22:25.448Z,-1.40
2022-12-02T07:24:58.502Z,-1.40
2022-12-02T07:27:29.849Z,-1.40
2022-12-02T07:30:00.920Z,-1.50
2022-12-02T07:32:28.801Z,-1.50
2022-12-02T07:34:56.983Z,-1.50
2022-12-02T07:37:24.917Z,-1.50
2022-12-02T07:39:52.828Z,-1.50
2022-12-02T07:42:20.718Z,-1.50
2022-12-02T07:44:48.785Z,-1.50
2022-12-02T07:47:18.268Z,-1.50
2022-12-02T07:49:46.163Z,-1.40
2022-12-02T07:52:14.088Z,-1.50
2022-12-02T07:54:42.041Z,-1.50
2022-12-02T07:57:09.969Z,-1.50
2022-12-02T07:59:37.957Z,-1.40
2022-12-02T08:02:05.907Z,-1.40
2022-12-02T08:04:35.258Z,-1.40
2022-12-02T08:07:03.263Z,-1.40
2022-12-02T08:09:31.293Z,-1.40
2022-12-02T08:11:59.542Z,-1.40
2022-12-02T08:14:27.435Z,-1.40
2022-12-02T08:16:55.392Z,-1.40
2022-12-02T08:19:23.415Z,-1.30
2022-12-02T08:21:53.012Z,-1.40
2022-12-02T08:24:21.070Z,-1.40
2022-12-02T08:26:49.001Z,-1.40
2022-12-02T08:29:16.901Z,-1.40
2022-12-02T08:31:45.091Z,-1.40
2022-12-02T08:34:13.006Z,-1.40
2022-12-02T08:36:40.898Z,-1.40
2022-12-02T08:39:10.367Z,-1.40
2022-12-02T08:41:39.388Z,-1.40
2022-12-02T08:44:07.697Z,-1.40
2022-12-02T08:46:36.492Z,-1.40
2022-12-02T08:49:06.159Z,-1.30
2022-12-02T08:51:34.581Z,-1.30
2022-12-02T08:54:02.868Z,-1.40
2022-12-02T08:56:32.158Z,-1.30
2022-12-02T08:59:00.167Z,-1.30
2022-12-02T09:01:28.112Z,-1.30
2022-12-02T09:03:56.175Z,-1.30
2022-12-02T09:06:24.091Z,-1.30
2022-12-02T09:08:52.102Z,-1.30
2022-12-02T09:11:20.798Z,-1.40
2022-12-02T09:13:50.188Z,-1.30
2022-12-02T09:16:18.297Z,-1.40
2022-12-02T09:18:46.956Z,-1.40
2022-12-02T09:21:14.924Z,-1.40
2022-12-02T09:23:47.357Z,-1.40
2022-12-02T09:26:18.360Z,-1.40
2022-12-02T09:28:47.575Z,-1.40
2022-12-02T09:31:16.997Z,-1.40
2022-12-02T09:33:44.963Z,-1.40
2022-12-02T09:36:12.858Z,-1.40
2022-12-02T09:38:40.863Z,-1.40
2022-12-02T09:41:08.939Z,-1.40
2022-12-02T09:43:37.174Z,-1.40
2022-12-02T09:46:06.292Z,-1.40
2022-12-02T09:48:35.864Z,-1.40
2022-12-02T09:51:04.084Z,-1.50
2022-12-02T09:53:35.156Z,-1.50
2022-12-02T09:56:03.819Z,-1.50
2022-12-02T09:58:32.438Z,-1.50
2022-12-02T10:01:00.404Z,-1.60
2022-12-02T10:03:30.048Z,-1.50
2022-12-02T10:06:09.684Z,-1.50
2022-12-02T10:08:38.179Z,-1.60
2022-12-02T10:11:07.193Z,-1.60
2022-12-02T10:13:40.646Z,-1.60
2022-12-02T10:16:13.237Z,-1.70
2022-12-02T10:18:42.860Z,-1.60
2022-12-02T10:21:12.260Z,-1.70
2022-12-02T10:23:58.216Z,-1.70
2022-12-02T10:26:27.259Z,-1.70
2022-12-02T10:29:05.083Z,-1.70
2022-12-02T10:31:33.766Z,-1.70
2022-12-02T10:34:03.875Z,-1.70
2022-12-02T10:36:35.340Z,-1.70
2022-12-02T10:39:38.193Z,-1.70
2022-12-02T10:42:13.974Z,-1.70
2022-12-02T10:44:43.599Z,-1.70
2022-12-02T10:47:17.421Z,-1.70
2022-12-02T10:49:51.248Z,-1.80
2022-12-02T10:52:25.878Z,-1.90
2022-12-02T10:54:57.332Z,-1.80
2022-12-02T10:57:26.902Z,-1.80
2022-12-02T10:59:56.294Z,-1.90
2022-12-02T11:02:28.417Z,-1.90
2022-12-02T11:04:56.391Z,-1.90
2022-12-02T11:07:26.161Z,-1.90
2022-12-02T11:09:56.113Z,-2.00
2022-12-02T11:12:35.628Z,-2.00
2022-12-02T11:15:11.313Z,-1.90
2022-12-02T11:17:51.456Z,-2.00
2022-12-02T11:20:44.720Z,-1.90
2022-12-02T11:23:25.967Z,-1.90
2022-12-02T11:26:18.606Z,-1.80
2022-12-02T11:29:16.862Z,-1.90
2022-12-02T11:32:02.843Z,-1.90
2022-12-02T11:37:51.709Z,-2.00
2022-12-02T11:40:53.301Z,-2.00
2022-12-02T11:44:07.710Z,-1.90
2022-12-02T11:46:45.053Z,-1.90
2022-12-02T11:49:28.945Z,-2.00
2022-12-02T11:52:14.528Z,-2.00
2022-12-02T11:54:46.617Z,-2.00
2022-12-02T11:57:20.682Z,-2.00
2022-12-02T11:59:50.410Z,-2.00
2022-12-02T12:02:20.116Z,-2.00
2022-12-02T12:04:59.400Z,-2.00
2022-12-02T12:07:42.405Z,-2.00
2022-12-02T12:10:25.350Z,-1.90
2022-12-02T12:13:13.136Z,-2.00
2022-12-02T12:15:57.171Z,-1.90
2022-12-02T12:18:40.348Z,-2.00
2022-12-02T12:21:09.756Z,-2.00
2022-12-02T12:23:40.544Z,-2.00
2022-12-02T12:26:09.705Z,-2.10
2022-12-02T12:28:38.961Z,-2.10
2022-12-02T12:31:10.713Z,-2.10
2022-12-02T12:33:38.869Z,-2.10
2022-12-02T12:36:07.155Z,-2.00
2022-12-02T12:38:35.107Z,-2.00
2022-12-02T12:41:03.043Z,-2.10
2022-12-02T12:43:30.996Z,-2.20
2022-12-02T12:45:58.960Z,-2.20
2022-12-02T12:48:28.215Z,-2.10
2022-12-02T12:50:56.164Z,-2.20
2022-12-02T12:53:24.191Z,-2.20
2022-12-02T12:55:57.789Z,-2.20
2022-12-02T12:58:28.823Z,-2.10
2022-12-02T13:00:56.926Z,-2.20
2022-12-02T13:03:24.965Z,-2.10
2022-12-02T13:05:54.316Z,-2.10
2022-12-02T13:08:22.943Z,-2.10
2022-12-02T13:10:51.200Z,-2.20
2022-12-02T13:13:19.105Z,-2.20
2022-12-02T13:15:47.918Z,-2.30
2022-12-02T13:18:15.995Z,-2.30
2022-12-02T13:20:43.960Z,-2.30
2022-12-02T13:23:13.829Z,-2.30
2022-12-02T13:25:41.911Z,-2.30
2022-12-02T13:28:09.859Z,-2.30
2022-12-02T13:30:42.323Z,-2.20
2022-12-02T13:33:10.995Z,-2.30
2022-12-02T13:35:39.090Z,-2.30
2022-12-02T13:38:07.067Z,-2.30
2022-12-02T13:40:36.377Z,-2.30
2022-12-02T13:43:04.261Z,-2.40
2022-12-02T13:45:32.205Z,-2.30
2022-12-02T13:48:01.883Z,-2.30
2022-12-02T13:50:29.950Z,-2.30
2022-12-02T13:52:57.874Z,-2.30
2022-12-02T13:55:25.774Z,-2.40
2022-12-02T13:57:55.157Z,-2.30
2022-12-02T14:00:23.308Z,-2.30
2022-12-02T14:02:51.223Z,-2.30
2022-12-02T14:05:19.170Z,-2.30
2022-12-02T14:07:47.166Z,-2.30
2022-12-02T14:10:15.185Z,-2.30
2022-12-02T14:12:43.150Z,-2.30
2022-12-02T14:15:12.768Z,-2.30
2022-12-02T14:17:40.837Z,-2.50
2022-12-02T14:20:09.303Z,-2.50
2022-12-02T14:22:37.319Z,-2.50
2022-12-02T14:25:05.857Z,-2.40
2022-12-02T14:27:33.823Z,-2.40
2022-12-02T14:30:01.761Z,-2.40
2022-12-02T14:32:31.215Z,-2.40
2022-12-02T14:34:59.108Z,-2.40
2022-12-02T14:37:27.144Z,-2.50
2022-12-02T14:39:55.199Z,-2.50
2022-12-02T14:42:26.106Z,-2.40
2022-12-02T14:44:54.451Z,-2.50
2022-12-02T14:47:22.675Z,-2.50
2022-12-02T14:49:52.040Z,-2.40
2022-12-02T14:52:20.068Z,-2.40
2022-12-02T14:54:47.998Z,-2.40
2022-12-02T14:57:17.475Z,-2.40
2022-12-02T14:59:45.659Z,-2.40
2022-12-02T15:02:15.180Z,-2.40
2022-12-02T15:04:43.556Z,-2.40
2022-12-02T15:07:12.862Z,-2.40
2022-12-02T15:09:40.908Z,-2.40
2022-12-02T15:12:09.093Z,-2.40
2022-12-02T15:14:37.015Z,-2.40
2022-12-02T15:17:05.020Z,-2.40
2022-12-02T15:19:33.215Z,-2.40
2022-12-02T15:22:01.281Z,-2.40
2022-12-02T15:24:30.599Z,-2.40
2022-12-02T15:27:00.646Z,-2.40
2022-12-02T15:29:29.031Z,-2.40
2022-12-02T15:31:57.214Z,-2.40
2022-12-02T15:34:25.874Z,-2.40
2022-12-02T15:36:53.792Z,-2.30
2022-12-02T15:39:21.836Z,-2.40
2022-12-02T15:41:51.127Z,-2.30
2022-12-02T15:44:19.064Z,-2.40
2022-12-02T15:46:47.101Z,-2.40
2022-12-02T15:49:15.302Z,-2.40
2022-12-02T15:51:43.223Z,-2.40
2022-12-02T15:54:11.110Z,-2.40
2022-12-02T15:56:39.075Z,-2.40
2022-12-02T15:59:08.336Z,-2.40
2022-12-02T16:01:36.440Z,-2.40
2022-12-02T16:04:04.627Z,-2.40
2022-12-02T16:06:32.716Z,-2.50
2022-12-02T16:09:00.690Z,-2.50
2022-12-02T16:11:28.617Z,-2.50
2022-12-02T16:13:56.829Z,-2.40
2022-12-02T16:16:26.319Z,-2.40
2022-12-02T16:18:54.365Z,-2.40
2022-12-02T16:21:22.274Z,-2.30
2022-12-02T16:23:50.179Z,-2.30
2022-12-02T16:26:18.166Z,-2.40
2022-12-02T16:28:46.886Z,-2.30
2022-12-02T16:31:15.147Z,-2.30
2022-12-02T16:33:44.500Z,-2.30
2022-12-02T16:36:12.453Z,-2.30
2022-12-02T16:38:40.700Z,-2.40
2022-12-02T16:41:08.847Z,-2.40
2022-12-02T16:43:36.776Z,-2.50
2022-12-02T16:46:05.102Z,-2.40
2022-12-02T16:48:33.197Z,-2.30
2022-12-02T16:51:03.128Z,-2.40
2022-12-02T16:53:31.060Z,-2.40
2022-12-02T16:55:59.198Z,-2.40
2022-12-02T16:58:27.081Z,-2.40
2022-12-02T17:00:55.067Z,-2.40
2022-12-02T17:03:23.089Z,-2.40
2022-12-02T17:05:51.050Z,-2.50
2022-12-02T17:08:20.407Z,-2.50
2022-12-02T17:10:48.415Z,-2.40
2022-12-02T17:13:16.487Z,-2.50
2022-12-02T17:15:44.533Z,-2.60
2022-12-02T17:18:12.670Z,-2.50
2022-12-02T17:20:40.601Z,-2.40
2022-12-02T17:23:08.554Z,-2.40
2022-12-02T17:25:37.823Z,-2.40
2022-12-02T17:28:05.974Z,-2.40
2022-12-02T17:30:34.272Z,-2.40
2022-12-02T17:33:02.288Z,-2.40
2022-12-02T17:35:30.290Z,-2.40
2022-12-02T17:37:58.245Z,-2.40
2022-12-02T17:40:26.257Z,-2.40
2022-12-02T17:42:55.584Z,-2.40
2022-12-02T17:45:23.689Z,-2.40
2022-12-02T17:47:51.641Z,-2.40
2022-12-02T17:50:19.538Z,-2.30
2022-12-02T17:52:47.476Z,-2.40
2022-12-02T17:55:15.986Z,-2.40
2022-12-02T17:57:43.993Z,-2.50
2022-12-02T18:00:14.235Z,-2.50
2022-12-02T18:02:42.288Z,-2.60
2022-12-02T18:05:10.488Z,-2.50
2022-12-02T18:07:38.619Z,-2.50
2022-12-02T18:10:07.601Z,-2.50
2022-12-02T18:12:35.591Z,-2.50
2022-12-02T18:15:03.502Z,-2.60
2022-12-02T18:17:32.842Z,-2.60
2022-12-02T18:20:00.801Z,-2.60
2022-12-02T18:22:29.117Z,-2.70
2022-12-02T18:24:58.475Z,-2.60
2022-12-02T18:27:27.378Z,-2.60
2022-12-02T18:29:56.403Z,-2.70
2022-12-02T18:32:24.437Z,-2.70
2022-12-02T18:34:54.013Z,-2.70
2022-12-02T18:37:22.525Z,-2.70
2022-12-02T18:39:50.554Z,-2.60
2022-12-02T18:42:18.569Z,-2.70
2022-12-02T18:44:46.640Z,-2.70
2022-12-02T18:47:14.737Z,-2.70
2022-12-02T18:49:43.074Z,-2.70
2022-12-02T18:52:12.621Z,-2.60
2022-12-02T18:54:41.035Z,-2.60
2022-12-02T18:57:08.965Z,-2.60
2022-12-02T18:59:37.198Z,-2.70
2022-12-02T19:02:05.303Z,-2.70
2022-12-02T19:04:33.390Z,-2.60
2022-12-02T19:07:01.518Z,-2.60
2022-12-02T19:09:30.802Z,-2.50
2022-12-02T19:11:58.801Z,-2.60
2022-12-02T19:14:26.969Z,-2.70
2022-12-02T19:16:54.884Z,-2.70
2022-12-02T19:19:22.840Z,-2.70
2022-12-02T19:21:50.879Z,-2.60
2022-12-02T19:24:18.962Z,-2.70
2022-12-02T19:26:48.262Z,-2.70
2022-12-02T19:29:16.151Z,-2.70
2022-12-02T19:31:44.649Z,-2.60
2022-12-02T19:34:13.137Z,-2.60
2022-12-02T19:36:41.058Z,-2.60
2022-12-02T19:39:09.035Z,-2.60
2022-12-02T19:41:37.051Z,-2.60
2022-12-02T19:44:06.510Z,-2.60
2022-12-02T19:46:44.823Z,-2.60
2022-12-02T19:49:12.905Z,-2.60
2022-12-02T19:51:40.980Z,-2.60
2022-12-02T19:54:08.984Z,-2.60
2022-12-02T19:56:37.131Z,-2.60
2022-12-02T19:59:06.374Z,-2.60
2022-12-02T20:01:38.775Z,-2.60
2022-12-02T20:04:33.184Z,-2.60
2022-12-02T20:06:55.961Z,-2.60
2022-12-02T20:09:26.074Z,-2.60
2022-12-02T20:11:54.626Z,-2.60
2022-12-02T20:14:23.897Z,-2.60
2022-12-02T20:16:51.940Z,-2.60
2022-12-02T20:19:19.867Z,-2.60
2022-12-02T20:21:47.959Z,-2.60
2022-12-02T20:24:16.280Z,-2.60
2022-12-02T20:26:44.731Z,-2.50
2022-12-02T20:29:12.756Z,-2.50
2022-12-02T20:31:42.188Z,-2.50
2022-12-02T20:34:35.265Z,-2.40
2022-12-02T20:37:03.855Z,-2.40
2022-12-02T20:39:31.887Z,-2.40
2022-12-02T20:42:00.002Z,-2.40
2022-12-02T20:44:27.938Z,-2.40
2022-12-02T20:46:57.460Z,-2.40
2022-12-02T20:49:25.569Z,-2.30
2022-12-02T20:51:53.965Z,-2.30
2022-12-02T20:54:21.978Z,-2.40
2022-12-02T20:56:50.040Z,-2.30
2022-12-02T20:59:20.468Z,-2.30
2022-12-02T21:01:49.905Z,-2.40
2022-12-02T21:04:19.258Z,-2.40
2022-12-02T21:06:47.210Z,-2.40
2022-12-02T21:09:15.859Z,-2.40
2022-12-02T21:11:43.944Z,-2.40
2022-12-02T21:14:11.870Z,-2.30
2022-12-02T21:16:39.838Z,-2.30
2022-12-02T21:19:07.969Z,-2.30
2022-12-02T21:21:37.805Z,-2.30
2022-12-02T21:24:06.388Z,-2.40
2022-12-02T21:26:34.558Z,-2.40
2022-12-02T21:29:02.661Z,-2.30
2022-12-02T21:31:30.672Z,-2.40
2022-12-02T21:33:58.699Z,-2.30
2022-12-02T21:36:26.632Z,-2.30
2022-12-02T21:38:55.973Z,-2.30
2022-12-02T21:41:23.870Z,-2.30
2022-12-02T21:43:51.869Z,-2.40
2022-12-02T21:46:19.779Z,-2.40
2022-12-02T21:48:48.086Z,-2.30
2022-12-02T21:51:16.111Z,-2.30
2022-12-02T21:53:44.298Z,-2.30
2022-12-02T21:56:13.680Z,-2.20
2022-12-02T21:58:41.634Z,-2.10
2022-12-02T22:01:27.258Z,-2.20
2022-12-02T22:03:55.224Z,-2.20
2022-12-02T22:06:23.230Z,-2.20
2022-12-02T22:08:51.143Z,-2.20
2022-12-02T22:11:20.410Z,-2.20
2022-12-02T22:13:48.523Z,-2.20
2022-12-02T22:16:16.672Z,-2.20
2022-12-02T22:18:44.647Z,-2.30
2022-12-02T22:21:12.556Z,-2.20
2022-12-02T22:23:40.542Z,-2.20
2022-12-02T22:26:08.568Z,-2.20
2022-12-02T22:28:37.955Z,-2.20
2022-12-02T22:31:06.087Z,-2.20
2022-12-02T22:33:34.091Z,-2.00
2022-12-02T22:36:02.325Z,-2.10
2022-12-02T22:38:30.244Z,-2.10
2022-12-02T22:40:58.220Z,-2.20
2022-12-02T22:43:26.205Z,-2.10
2022-12-02T22:45:55.654Z,-2.10
2022-12-02T22:48:23.744Z,-2.10
2022-12-02T22:50:51.723Z,-2.10
2022-12-02T22:53:19.741Z,-2.10
2022-12-02T22:55:47.646Z,-2.10
2022-12-02T22:58:15.621Z,-2.20
2022-12-02T23:00:43.644Z,-2.10
2022-12-02T23:03:13.006Z,-2.10
2022-12-02T23:05:41.053Z,-2.10
2022-12-02T23:08:09.523Z,-2.10
2022-12-02T23:10:37.596Z,-2.10
2022-12-02T23:13:05.732Z,-2.10
2022-12-02T23:15:37.060Z,-2.10
2022-12-02T23:18:06.228Z,-2.10
2022-12-02T23:20:36.225Z,-2.10
2022-12-02T23:23:04.347Z,-2.10
2022-12-02T23:25:32.414Z,-2.10
2022-12-02T23:28:00.361Z,-2.00
2022-12-02T23:30:29.714Z,-2.10
2022-12-02T23:32:58.008Z,-2.10
2022-12-02T23:35:26.229Z,-2.00
2022-12-02T23:37:55.751Z,-2.00
2022-12-02T23:40:23.816Z,-2.00
2022-12-02T23:42:51.873Z,-1.90
2022-12-02T23:45:19.835Z,-2.00
2022-12-02T23:47:47.857Z,-2.00
2022-12-02T23:50:15.819Z,-1.90
2022-12-02T23:52:43.713Z,-2.00
2022-12-02T23:55:13.036Z,-2.00
2022-12-02T23:57:40.982Z,-2.00
